createdAt,value
2022-08-28T00:00:40.258Z,25.43
2022-08-28T00:03:10.622Z,25.44
2022-08-28T00:05:39.931Z,25.45
2022-08-28T00:08:10.004Z,25.44
2022-08-28T00:10:40.080Z,25.42
2022-08-28T00:13:18.607Z,25.41
2022-08-28T00:15:49.059Z,25.40
2022-08-28T00:18:17.875Z,25.36
2022-08-28T00:20:46.603Z,25.34
2022-08-28T00:23:15.019Z,25.33
2022-08-28T00:25:42.832Z,25.33
2022-08-28T00:28:21.029Z,25.31
2022-08-28T00:30:56.156Z,25.29
2022-08-28T00:33:27.431Z,25.26
2022-08-28T00:35:56.032Z,25.25
2022-08-28T00:38:27.166Z,25.25
2022-08-28T00:40:59.421Z,25.25
2022-08-28T00:43:44.933Z,25.22
2022-08-28T00:46:21.414Z,25.21
2022-08-28T00:48:49.949Z,25.18
2022-08-28T00:51:38.585Z,25.15
2022-08-28T00:54:08.254Z,25.12
2022-08-28T00:56:39.415Z,25.11
2022-08-28T00:59:16.067Z,25.10
2022-08-28T01:01:46.281Z,25.08
2022-08-28T01:04:17.981Z,25.07
2022-08-28T01:06:53.870Z,25.04
2022-08-28T01:09:25.961Z,25.02
2022-08-28T01:12:19.626Z,25.02
2022-08-28T01:14:52.006Z,25.00
2022-08-28T01:17:23.727Z,24.98
2022-08-28T01:19:57.447Z,24.98
2022-08-28T01:22:32.551Z,24.97
2022-08-28T01:25:05.918Z,24.97
2022-08-28T01:27:33.489Z,24.98
2022-08-28T01:30:01.753Z,24.96
2022-08-28T01:32:56.833Z,24.96
2022-08-28T01:35:30.178Z,24.94
2022-08-28T01:37:58.482Z,24.93
2022-08-28T01:40:38.097Z,24.93
2022-08-28T01:43:22.514Z,24.94
2022-08-28T01:45:56.322Z,24.92
2022-08-28T01:48:26.971Z,24.91
2022-08-28T01:50:56.026Z,24.93
2022-08-28T01:53:30.748Z,24.95
2022-08-28T01:56:05.293Z,24.95
2022-08-28T01:58:37.955Z,24.91
2022-08-28T02:01:17.075Z,24.89
2022-08-28T02:03:44.801Z,24.86
2022-08-28T02:06:16.564Z,24.81
2022-08-28T02:08:44.149Z,24.78
2022-08-28T02:11:12.378Z,24.75
2022-08-28T02:13:40.794Z,24.72
2022-08-28T02:16:11.033Z,24.71
2022-08-28T02:18:39.096Z,24.70
2022-08-28T02:21:09.259Z,24.68
2022-08-28T02:23:40.244Z,24.67
2022-08-28T02:26:09.822Z,24.66
2022-08-28T02:28:38.034Z,24.64
2022-08-28T02:31:09.447Z,24.67
2022-08-28T02:33:44.309Z,24.64
2022-08-28T02:36:15.096Z,24.62
2022-08-28T02:38:45.444Z,24.60
2022-08-28T02:41:13.947Z,24.59
2022-08-28T02:43:41.482Z,24.54
2022-08-28T02:46:10.143Z,24.53
2022-08-28T02:48:40.575Z,24.49
2022-08-28T02:51:13.387Z,24.51
2022-08-28T02:53:42.352Z,24.52
2022-08-28T02:56:10.503Z,24.51
2022-08-28T02:58:39.468Z,24.47
2022-08-28T03:01:11.377Z,24.44
2022-08-28T03:03:41.401Z,24.42
2022-08-28T03:06:12.605Z,24.39
2022-08-28T03:08:42.230Z,24.36
2022-08-28T03:11:10.484Z,24.36
2022-08-28T03:13:38.870Z,24.34
2022-08-28T03:16:07.074Z,24.35
2022-08-28T03:18:35.142Z,24.36
2022-08-28T03:21:03.179Z,24.41
2022-08-28T03:23:31.818Z,24.48
2022-08-28T03:26:07.113Z,24.57
2022-08-28T03:28:39.426Z,24.72
2022-08-28T03:31:10.101Z,24.81
2022-08-28T03:33:38.114Z,24.80
2022-08-28T03:36:12.953Z,24.87
2022-08-28T03:38:41.969Z,24.87
2022-08-28T03:41:14.616Z,24.90
2022-08-28T03:43:43.072Z,24.92
2022-08-28T03:46:17.656Z,25.00
2022-08-28T03:48:46.102Z,25.10
2022-08-28T03:51:18.755Z,25.18
2022-08-28T03:53:49.419Z,25.26
2022-08-28T03:56:23.959Z,25.33
2022-08-28T03:58:57.470Z,25.35
2022-08-28T04:01:25.574Z,25.36
2022-08-28T04:03:53.432Z,25.35
2022-08-28T04:06:21.143Z,25.34
2022-08-28T04:08:48.755Z,25.31
2022-08-28T04:11:17.385Z,25.29
2022-08-28T04:13:45.438Z,25.29
2022-08-28T04:16:16.749Z,25.29
2022-08-28T04:18:45.750Z,25.34
2022-08-28T04:21:20.112Z,25.33
2022-08-28T04:23:48.488Z,25.32
2022-08-28T04:26:19.940Z,25.36
2022-08-28T04:28:50.135Z,25.32
2022-08-28T04:31:32.380Z,25.32
2022-08-28T04:34:02.491Z,25.32
2022-08-28T04:36:30.918Z,25.32
2022-08-28T04:38:59.370Z,25.34
2022-08-28T04:41:28.502Z,25.36
2022-08-28T04:43:57.941Z,25.34
2022-08-28T04:46:26.036Z,25.29
2022-08-28T04:48:53.915Z,25.26
2022-08-28T04:51:22.481Z,25.23
2022-08-28T04:53:50.034Z,25.17
2022-08-28T04:56:18.261Z,25.15
2022-08-28T04:58:46.189Z,25.11
2022-08-28T05:01:26.960Z,25.08
2022-08-28T05:04:02.256Z,25.05
2022-08-28T05:06:32.181Z,25.01
2022-08-28T05:09:03.586Z,24.94
2022-08-28T05:11:34.484Z,24.92
2022-08-28T05:14:11.595Z,24.93
2022-08-28T05:16:50.228Z,24.91
2022-08-28T05:19:20.275Z,24.90
2022-08-28T05:21:48.725Z,24.84
2022-08-28T05:24:16.730Z,24.73
2022-08-28T05:26:48.334Z,24.69
2022-08-28T05:29:16.999Z,24.62
2022-08-28T05:31:45.274Z,24.62
2022-08-28T05:34:15.205Z,24.62
2022-08-28T05:36:42.800Z,24.56
2022-08-28T05:39:12.498Z,24.47
2022-08-28T05:41:43.291Z,24.48
2022-08-28T05:44:14.866Z,24.52
2022-08-28T05:46:47.463Z,24.51
2022-08-28T05:49:17.915Z,24.55
2022-08-28T05:51:46.824Z,24.64
2022-08-28T05:54:15.739Z,24.73
2022-08-28T05:56:45.213Z,24.83
2022-08-28T05:59:13.909Z,24.89
2022-08-28T06:01:46.425Z,24.98
2022-08-28T06:04:25.452Z,25.02
2022-08-28T06:06:54.106Z,25.06
2022-08-28T06:09:30.205Z,25.07
2022-08-28T06:12:02.855Z,25.11
2022-08-28T06:14:31.971Z,25.15
2022-08-28T06:17:00.985Z,25.21
2022-08-28T06:19:31.823Z,25.23
2022-08-28T06:22:07.501Z,25.25
2022-08-28T06:24:36.265Z,25.25
2022-08-28T06:27:04.569Z,25.24
2022-08-28T06:29:32.099Z,25.26
2022-08-28T06:32:03.424Z,25.27
2022-08-28T06:34:31.535Z,25.33
2022-08-28T06:36:59.025Z,25.34
2022-08-28T06:39:27.022Z,25.35
2022-08-28T06:41:54.838Z,25.42
2022-08-28T06:44:22.783Z,25.50
2022-08-28T06:46:53.619Z,25.56
2022-08-28T06:49:22.333Z,25.61
2022-08-28T06:51:50.534Z,25.64
2022-08-28T06:54:22.935Z,25.70
2022-08-28T06:56:52.346Z,25.74
2022-08-28T06:59:19.934Z,25.78
2022-08-28T07:01:47.576Z,25.82
2022-08-28T07:04:15.478Z,25.86
2022-08-28T07:06:54.295Z,25.86
2022-08-28T07:09:24.490Z,25.88
2022-08-28T07:11:52.537Z,25.92
2022-08-28T07:14:20.092Z,25.96
2022-08-28T07:16:47.991Z,26.01
2022-08-28T07:19:16.207Z,26.04
2022-08-28T07:21:46.484Z,26.07
2022-08-28T07:24:16.914Z,26.07
2022-08-28T07:26:47.018Z,26.08
2022-08-28T07:29:15.443Z,26.14
2022-08-28T07:31:53.153Z,26.19
2022-08-28T07:34:26.827Z,26.23
2022-08-28T07:36:56.293Z,26.28
2022-08-28T07:39:24.470Z,26.36
2022-08-28T07:41:51.946Z,26.41
2022-08-28T07:44:38.175Z,26.44
2022-08-28T07:47:08.817Z,26.50
2022-08-28T07:49:36.620Z,26.58
2022-08-28T07:52:09.224Z,26.66
2022-08-28T07:54:40.369Z,26.75
2022-08-28T07:57:10.331Z,26.85
2022-08-28T07:59:38.937Z,26.92
2022-08-28T08:02:07.028Z,26.98
2022-08-28T08:04:35.250Z,27.08
2022-08-28T08:07:04.738Z,27.19
2022-08-28T08:09:36.866Z,27.31
2022-08-28T08:12:05.654Z,27.40
2022-08-28T08:14:33.261Z,27.50
2022-08-28T08:17:04.013Z,27.59
2022-08-28T08:19:36.460Z,27.71
2022-08-28T08:22:04.250Z,27.80
2022-08-28T08:24:32.138Z,27.88
2022-08-28T08:27:02.340Z,27.97
2022-08-28T08:29:35.808Z,28.04
2022-08-28T08:32:08.939Z,28.04
2022-08-28T08:34:42.275Z,28.10
2022-08-28T08:37:11.784Z,28.09
2022-08-28T08:39:41.663Z,28.12
2022-08-28T08:42:31.979Z,28.12
2022-08-28T08:45:05.780Z,28.14
2022-08-28T08:47:52.430Z,28.20
2022-08-28T08:50:35.407Z,28.23
2022-08-28T08:53:21.803Z,28.28
2022-08-28T08:55:53.571Z,28.25
2022-08-28T08:58:53.154Z,28.16
2022-08-28T09:01:29.169Z,28.16
2022-08-28T09:04:08.537Z,28.21
2022-08-28T09:07:09.171Z,28.26
2022-08-28T09:09:52.855Z,28.25
2022-08-28T09:12:30.371Z,28.28
2022-08-28T09:15:05.529Z,28.31
2022-08-28T09:17:42.578Z,28.38
2022-08-28T09:20:14.993Z,28.46
2022-08-28T09:22:48.669Z,28.50
2022-08-28T09:26:12.556Z,28.57
2022-08-28T09:28:41.880Z,28.51
2022-08-28T09:31:30.060Z,28.43
2022-08-28T09:34:38.119Z,28.41
2022-08-28T09:37:08.479Z,28.36
2022-08-28T09:39:36.417Z,28.31
2022-08-28T09:42:41.593Z,28.33
2022-08-28T09:45:20.596Z,28.39
2022-08-28T09:47:58.374Z,28.42
2022-08-28T09:50:31.336Z,28.53
2022-08-28T09:53:09.473Z,28.58
2022-08-28T09:56:11.101Z,28.73
2022-08-28T09:58:59.811Z,28.88
2022-08-28T10:01:34.931Z,29.00
2022-08-28T10:04:44.472Z,29.16
2022-08-28T10:07:37.593Z,29.34
2022-08-28T10:10:21.430Z,29.41
2022-08-28T10:13:06.993Z,29.51
2022-08-28T10:15:56.164Z,29.59
2022-08-28T10:18:51.781Z,29.68
2022-08-28T10:21:40.457Z,29.69
2022-08-28T10:24:26.999Z,29.69
2022-08-28T10:27:15.658Z,29.75
2022-08-28T10:30:12.445Z,29.78
2022-08-28T10:33:00.016Z,29.82
2022-08-28T10:36:03.702Z,29.95
2022-08-28T10:38:49.501Z,30.07
2022-08-28T10:41:41.238Z,30.13
2022-08-28T10:44:14.000Z,30.20
2022-08-28T10:46:55.656Z,30.22
2022-08-28T10:49:29.038Z,30.17
2022-08-28T10:52:15.653Z,30.13
2022-08-28T10:55:12.652Z,30.24
2022-08-28T10:58:02.607Z,30.37
2022-08-28T11:00:30.610Z,30.45
2022-08-28T11:03:22.235Z,30.54
2022-08-28T11:06:08.388Z,30.55
2022-08-28T11:08:38.445Z,30.69
2022-08-28T11:11:13.884Z,30.76
2022-08-28T11:13:55.022Z,30.83
2022-08-28T11:16:30.170Z,30.93
2022-08-28T11:19:11.228Z,31.01
2022-08-28T11:21:52.530Z,31.13
2022-08-28T11:24:32.602Z,31.21
2022-08-28T11:27:16.976Z,31.23
2022-08-28T11:30:06.558Z,31.43
2022-08-28T11:32:56.143Z,31.43
2022-08-28T11:35:41.332Z,31.56
2022-08-28T11:38:10.283Z,31.61
2022-08-28T11:40:56.810Z,31.77
2022-08-28T11:43:24.302Z,31.92
2022-08-28T11:45:55.045Z,32.11
2022-08-28T11:48:35.477Z,32.22
2022-08-28T11:51:13.741Z,32.29
2022-08-28T11:54:11.672Z,32.43
2022-08-28T11:56:48.034Z,32.60
2022-08-28T11:59:59.823Z,32.77
2022-08-28T12:02:39.399Z,32.93
2022-08-28T12:05:33.161Z,32.95
2022-08-28T12:08:03.919Z,33.04
2022-08-28T12:10:32.538Z,33.22
2022-08-28T12:13:09.705Z,33.35
2022-08-28T12:15:42.727Z,33.40
2022-08-28T12:18:13.262Z,33.53
2022-08-28T12:21:04.353Z,33.76
2022-08-28T12:24:09.007Z,33.99
2022-08-28T12:26:44.682Z,34.17
2022-08-28T12:29:45.008Z,34.33
2022-08-28T12:32:41.205Z,34.33
2022-08-28T12:35:26.105Z,34.48
2022-08-28T12:37:53.807Z,34.55
2022-08-28T12:40:37.852Z,34.59
2022-08-28T12:43:10.923Z,34.72
2022-08-28T12:45:58.589Z,34.87
2022-08-28T12:48:34.456Z,35.11
2022-08-28T12:51:14.713Z,35.29
2022-08-28T12:53:54.026Z,35.36
2022-08-28T12:56:24.616Z,35.42
2022-08-28T12:58:52.959Z,35.40
2022-08-28T13:01:33.117Z,35.31
2022-08-28T13:04:24.283Z,35.35
2022-08-28T13:07:06.782Z,35.46
2022-08-28T13:09:35.613Z,35.61
2022-08-28T13:12:03.952Z,35.61
2022-08-28T13:14:52.392Z,35.63
2022-08-28T13:17:47.446Z,35.94
2022-08-28T13:20:31.168Z,36.12
2022-08-28T13:23:00.033Z,36.18
2022-08-28T13:25:34.641Z,36.23
2022-08-28T13:28:11.137Z,36.44
2022-08-28T13:30:38.844Z,36.83
2022-08-28T13:33:26.001Z,36.99
2022-08-28T13:35:54.990Z,37.25
2022-08-28T13:38:25.212Z,37.59
2022-08-28T13:41:02.415Z,37.82
2022-08-28T13:43:45.855Z,38.17
2022-08-28T13:46:13.659Z,38.38
2022-08-28T13:48:41.499Z,38.23
2022-08-28T13:51:16.383Z,38.19
2022-08-28T13:53:50.516Z,38.14
2022-08-28T13:56:20.132Z,38.10
2022-08-28T13:58:58.125Z,38.13
2022-08-28T14:01:46.409Z,38.10
2022-08-28T14:04:14.928Z,38.07
2022-08-28T14:06:44.168Z,38.11
2022-08-28T14:09:15.307Z,37.99
2022-08-28T14:11:49.744Z,38.15
2022-08-28T14:14:17.600Z,38.27
2022-08-28T14:16:45.821Z,38.52
2022-08-28T14:19:13.568Z,38.59
2022-08-28T14:21:41.860Z,38.49
2022-08-28T14:24:09.490Z,38.68
2022-08-28T14:26:37.680Z,38.73
2022-08-28T14:29:08.516Z,38.82
2022-08-28T14:31:37.505Z,39.04
2022-08-28T14:34:05.692Z,39.35
2022-08-28T14:36:33.914Z,39.10
2022-08-28T14:39:06.280Z,38.81
2022-08-28T14:41:35.613Z,38.72
2022-08-28T14:44:04.425Z,38.83
2022-08-28T14:46:35.955Z,38.89
2022-08-28T14:49:09.045Z,38.88
2022-08-28T14:51:41.162Z,38.96
2022-08-28T14:54:11.848Z,39.09
2022-08-28T14:56:40.995Z,38.94
2022-08-28T14:59:13.418Z,38.86
2022-08-28T15:01:45.001Z,38.91
2022-08-28T15:04:17.859Z,39.01
2022-08-28T15:06:46.192Z,38.85
2022-08-28T15:09:14.587Z,38.75
2022-08-28T15:11:43.947Z,38.71
2022-08-28T15:14:12.375Z,38.52
2022-08-28T15:16:45.532Z,38.28
2022-08-28T15:19:17.819Z,37.95
2022-08-28T15:21:50.094Z,38.02
2022-08-28T15:24:25.857Z,37.98
2022-08-28T15:26:54.037Z,37.78
2022-08-28T15:29:21.621Z,37.61
2022-08-28T15:31:53.515Z,37.50
2022-08-28T15:34:26.914Z,37.50
2022-08-28T15:36:56.495Z,37.59
2022-08-28T15:39:45.330Z,37.54
2022-08-28T15:42:14.136Z,37.54
2022-08-28T15:44:42.178Z,37.72
2022-08-28T15:47:10.468Z,37.82
2022-08-28T15:49:44.596Z,37.82
2022-08-28T15:52:19.185Z,37.90
2022-08-28T15:54:48.303Z,37.93
2022-08-28T15:57:16.174Z,37.96
2022-08-28T15:59:49.709Z,38.02
2022-08-28T16:02:22.092Z,37.98
2022-08-28T16:04:50.258Z,37.89
2022-08-28T16:07:20.819Z,38.03
2022-08-28T16:09:49.204Z,38.27
2022-08-28T16:12:17.366Z,38.58
2022-08-28T16:14:44.969Z,38.70
2022-08-28T16:17:12.598Z,38.40
2022-08-28T16:19:41.173Z,38.16
2022-08-28T16:22:10.264Z,37.97
2022-08-28T16:24:38.543Z,37.68
2022-08-28T16:27:07.874Z,37.39
2022-08-28T16:29:38.691Z,37.15
2022-08-28T16:32:07.482Z,36.69
2022-08-28T16:34:36.868Z,36.31
2022-08-28T16:37:04.673Z,35.96
2022-08-28T16:39:32.694Z,35.54
2022-08-28T16:42:00.243Z,35.15
2022-08-28T16:44:27.957Z,34.79
2022-08-28T16:46:56.450Z,34.42
2022-08-28T16:49:24.782Z,34.10
2022-08-28T16:51:52.883Z,33.81
2022-08-28T16:54:21.809Z,33.41
2022-08-28T16:56:49.452Z,33.17
2022-08-28T16:59:18.267Z,32.86
2022-08-28T17:01:53.101Z,32.47
2022-08-28T17:04:22.137Z,32.21
2022-08-28T17:06:50.246Z,31.96
2022-08-28T17:09:21.042Z,31.91
2022-08-28T17:11:52.093Z,31.77
2022-08-28T17:14:21.792Z,31.60
2022-08-28T17:16:50.534Z,31.47
2022-08-28T17:19:19.450Z,31.33
2022-08-28T17:22:06.164Z,31.24
2022-08-28T17:24:33.824Z,31.13
2022-08-28T17:27:05.365Z,31.01
2022-08-28T17:29:36.352Z,30.90
2022-08-28T17:32:05.817Z,30.79
2022-08-28T17:34:33.630Z,30.71
2022-08-28T17:37:01.786Z,30.66
2022-08-28T17:39:29.817Z,30.58
2022-08-28T17:41:57.678Z,30.54
2022-08-28T17:44:25.633Z,30.57
2022-08-28T17:46:53.501Z,30.55
2022-08-28T17:49:22.394Z,30.57
2022-08-28T17:51:51.119Z,30.55
2022-08-28T17:54:22.634Z,30.48
2022-08-28T17:56:52.709Z,30.47
2022-08-28T17:59:21.549Z,30.46
2022-08-28T18:01:49.958Z,30.39
2022-08-28T18:04:24.189Z,30.33
2022-08-28T18:06:54.710Z,30.24
2022-08-28T18:09:24.170Z,30.14
2022-08-28T18:11:53.298Z,30.08
2022-08-28T18:14:21.761Z,29.98
2022-08-28T18:16:49.411Z,29.96
2022-08-28T18:19:17.038Z,29.93
2022-08-28T18:21:45.100Z,29.86
2022-08-28T18:24:13.158Z,29.89
2022-08-28T18:26:43.438Z,29.86
2022-08-28T18:29:12.542Z,29.88
2022-08-28T18:31:41.582Z,29.87
2022-08-28T18:34:10.074Z,29.90
2022-08-28T18:36:43.561Z,29.88
2022-08-28T18:39:11.909Z,29.86
2022-08-28T18:41:43.735Z,29.80
2022-08-28T18:44:15.216Z,29.70
2022-08-28T18:46:44.143Z,29.61
2022-08-28T18:49:12.511Z,29.46
2022-08-28T18:51:43.475Z,29.40
2022-08-28T18:54:18.003Z,29.39
2022-08-28T18:56:50.310Z,29.32
2022-08-28T18:59:19.089Z,29.29
2022-08-28T19:01:47.020Z,29.35
2022-08-28T19:04:14.734Z,29.28
2022-08-28T19:06:42.508Z,29.30
2022-08-28T19:09:20.606Z,29.33
2022-08-28T19:11:48.678Z,29.37
2022-08-28T19:14:16.603Z,29.30
2022-08-28T19:16:45.093Z,29.25
2022-08-28T19:19:12.696Z,29.18
2022-08-28T19:21:40.496Z,29.16
2022-08-28T19:24:08.128Z,29.09
2022-08-28T19:26:37.031Z,29.08
2022-08-28T19:29:04.863Z,29.04
2022-08-28T19:31:33.917Z,29.14
2022-08-28T19:34:02.520Z,29.14
2022-08-28T19:36:30.653Z,29.12
2022-08-28T19:38:58.606Z,29.19
2022-08-28T19:41:27.505Z,29.16
2022-08-28T19:43:55.496Z,29.14
2022-08-28T19:46:23.016Z,29.13
2022-08-28T19:48:53.062Z,29.06
2022-08-28T19:51:24.138Z,29.03
2022-08-28T19:53:58.730Z,28.96
2022-08-28T19:56:30.264Z,28.90
2022-08-28T19:59:00.490Z,28.91
2022-08-28T20:01:31.771Z,28.87
2022-08-28T20:04:00.453Z,28.85
2022-08-28T20:06:31.130Z,28.82
2022-08-28T20:08:59.280Z,28.82
2022-08-28T20:11:30.165Z,28.83
2022-08-28T20:14:04.282Z,28.79
2022-08-28T20:16:39.478Z,28.82
2022-08-28T20:19:10.378Z,28.83
2022-08-28T20:21:41.799Z,28.72
2022-08-28T20:24:18.151Z,28.65
2022-08-28T20:26:46.775Z,28.65
2022-08-28T20:29:21.616Z,28.66
2022-08-28T20:31:49.472Z,28.66
2022-08-28T20:34:19.151Z,28.65
2022-08-28T20:36:47.746Z,28.65
2022-08-28T20:39:15.667Z,28.67
2022-08-28T20:41:44.813Z,28.64
2022-08-28T20:44:16.931Z,28.55
2022-08-28T20:46:47.104Z,28.59
2022-08-28T20:49:22.097Z,28.60
2022-08-28T20:51:53.664Z,28.62
2022-08-28T20:54:23.762Z,28.57
2022-08-28T20:56:52.242Z,28.38
2022-08-28T20:59:22.245Z,28.31
2022-08-28T21:01:51.831Z,28.13
2022-08-28T21:04:21.020Z,27.99
2022-08-28T21:06:48.772Z,27.89
2022-08-28T21:09:17.600Z,27.81
2022-08-28T21:11:45.682Z,27.70
2022-08-28T21:14:15.006Z,27.64
2022-08-28T21:16:44.065Z,27.58
2022-08-28T21:19:16.323Z,27.57
2022-08-28T21:21:46.420Z,27.47
2022-08-28T21:24:16.768Z,27.39
2022-08-28T21:26:50.607Z,27.29
2022-08-28T21:29:22.048Z,27.12
2022-08-28T21:31:52.215Z,27.05
2022-08-28T21:34:21.642Z,26.99
2022-08-28T21:36:50.715Z,26.93
2022-08-28T21:39:20.701Z,26.75
2022-08-28T21:41:49.474Z,26.68
2022-08-28T21:44:17.707Z,26.66
2022-08-28T21:46:45.880Z,26.58
2022-08-28T21:49:13.873Z,26.52
2022-08-28T21:51:41.642Z,26.48
2022-08-28T21:54:09.237Z,26.43
2022-08-28T21:56:37.136Z,26.33
2022-08-28T21:59:04.629Z,26.26
2022-08-28T22:01:32.187Z,26.10
2022-08-28T22:04:00.125Z,26.05
2022-08-28T22:06:27.738Z,25.87
2022-08-28T22:08:56.558Z,25.66
2022-08-28T22:11:25.429Z,25.58
2022-08-28T22:13:57.281Z,25.47
2022-08-28T22:16:26.816Z,25.41
2022-08-28T22:18:55.068Z,25.32
2022-08-28T22:21:45.185Z,25.30
2022-08-28T22:24:14.097Z,25.31
2022-08-28T22:26:43.782Z,25.33
2022-08-28T22:29:12.084Z,25.39
2022-08-28T22:31:45.508Z,25.37
2022-08-28T22:34:14.978Z,25.43
2022-08-28T22:36:42.588Z,25.48
2022-08-28T22:39:10.223Z,25.44
2022-08-28T22:41:38.697Z,25.39
2022-08-28T22:44:07.260Z,25.06
2022-08-28T22:46:36.111Z,24.64
2022-08-28T22:49:04.304Z,24.51
2022-08-28T22:51:34.876Z,24.33
2022-08-28T22:54:02.974Z,24.00
2022-08-28T22:56:30.534Z,23.96
2022-08-28T22:58:58.286Z,23.97
2022-08-28T23:01:26.559Z,23.93
2022-08-28T23:03:54.231Z,23.74
2022-08-28T23:06:21.968Z,23.68
2022-08-28T23:08:49.939Z,23.69
2022-08-28T23:11:17.553Z,23.68
2022-08-28T23:13:45.494Z,23.74
2022-08-28T23:16:13.396Z,23.78
2022-08-28T23:19:06.552Z,23.55
2022-08-28T23:21:28.703Z,23.50
2022-08-28T23:23:56.621Z,23.42
2022-08-28T23:26:25.507Z,23.32
2022-08-28T23:28:53.306Z,23.37
2022-08-28T23:31:21.005Z,23.38
2022-08-28T23:33:49.283Z,23.38
2022-08-28T23:36:18.855Z,23.39
2022-08-28T23:38:46.319Z,23.39
2022-08-28T23:41:14.387Z,23.36
2022-08-28T23:43:42.521Z,23.29
2022-08-28T23:46:13.470Z,23.32
2022-08-28T23:48:41.423Z,23.40
2022-08-28T23:51:11.400Z,23.31
2022-08-28T23:53:42.539Z,23.25
2022-08-28T23:56:10.634Z,23.27
2022-08-28T23:58:43.211Z,23.37
